createdAt,value
2023-03-24T00:01:05.654Z,3.17
2023-03-24T00:03:36.765Z,6.40
2023-03-24T00:06:07.613Z,6.55
2023-03-24T00:08:38.642Z,8.30
2023-03-24T00:11:10.136Z,6.55
2023-03-24T00:13:40.795Z,6.40
2023-03-24T00:16:14.820Z,6.57
2023-03-24T00:18:45.262Z,5.07
2023-03-24T00:21:16.138Z,3.58
2023-03-24T00:23:48.074Z,5.07
2023-03-24T00:26:19.360Z,5.43
2023-03-24T00:28:52.090Z,5.18
2023-03-24T00:31:25.043Z,4.32
2023-03-24T00:33:55.614Z,4.22
2023-03-24T00:36:26.748Z,4.10
2023-03-24T00:38:58.204Z,4.88
2023-03-24T00:41:29.190Z,5.57
2023-03-24T00:44:03.740Z,7.55
2023-03-24T00:46:35.634Z,7.47
2023-03-24T00:49:07.875Z,7.63
2023-03-24T00:51:39.778Z,5.68
2023-03-24T00:54:12.899Z,6.88
2023-03-24T00:56:43.957Z,5.88
2023-03-24T00:59:14.210Z,8.85
2023-03-24T01:01:45.550Z,9.48
2023-03-24T01:04:15.769Z,9.15
2023-03-24T01:06:45.465Z,9.73
2023-03-24T01:09:15.191Z,7.53
2023-03-24T01:11:44.713Z,8.13
2023-03-24T01:14:15.176Z,8.85
2023-03-24T01:16:46.830Z,7.27
2023-03-24T01:19:17.039Z,6.65
2023-03-24T01:21:46.537Z,8.60
2023-03-24T01:24:17.089Z,9.40
2023-03-24T01:26:47.443Z,11.50
2023-03-24T01:29:17.665Z,10.55
2023-03-24T01:31:48.746Z,12.30
2023-03-24T01:34:18.851Z,9.63
2023-03-24T01:36:48.307Z,9.95
2023-03-24T01:39:18.201Z,9.40
2023-03-24T01:41:47.780Z,7.50
2023-03-24T01:44:29.718Z,12.85
2023-03-24T01:47:01.700Z,10.90
2023-03-24T01:49:37.022Z,13.57
2023-03-24T01:52:11.290Z,9.73
2023-03-24T01:54:44.656Z,11.23
2023-03-24T01:57:16.236Z,12.13
2023-03-24T01:59:55.817Z,11.57
2023-03-24T02:02:28.041Z,11.80
2023-03-24T02:05:03.797Z,10.18
2023-03-24T02:07:35.988Z,10.25
2023-03-24T02:10:09.758Z,13.35
2023-03-24T02:12:39.080Z,15.20
2023-03-24T02:15:11.952Z,15.10
2023-03-24T02:17:59.001Z,13.93
2023-03-24T02:20:48.212Z,17.77
2023-03-24T02:24:08.618Z,12.32
2023-03-24T02:27:02.810Z,15.40
2023-03-24T02:30:10.528Z,14.23
2023-03-24T02:33:08.086Z,16.63
2023-03-24T02:36:33.713Z,12.63
2023-03-24T02:39:41.984Z,14.43
2023-03-24T02:42:25.515Z,14.57
2023-03-24T02:45:09.945Z,13.05
2023-03-24T02:47:47.900Z,16.00
2023-03-24T02:50:25.966Z,14.32
2023-03-24T02:53:01.991Z,12.18
2023-03-24T02:55:36.670Z,13.43
2023-03-24T02:58:12.849Z,16.45
2023-03-24T03:00:49.205Z,16.17
2023-03-24T03:03:25.753Z,14.93
2023-03-24T03:05:59.189Z,16.25
2023-03-24T03:08:32.706Z,16.33
2023-03-24T03:11:04.259Z,17.15
2023-03-24T03:13:40.013Z,16.65
2023-03-24T03:16:15.584Z,18.15
2023-03-24T03:18:50.448Z,15.15
2023-03-24T03:21:24.255Z,18.83
2023-03-24T03:24:02.696Z,16.25
2023-03-24T03:26:34.429Z,18.80
2023-03-24T03:29:10.424Z,15.90
2023-03-24T03:31:43.850Z,19.50
2023-03-24T03:34:20.131Z,19.70
2023-03-24T03:36:55.059Z,19.90
2023-03-24T03:39:29.971Z,20.38
2023-03-24T03:41:59.880Z,21.75
2023-03-24T03:44:30.896Z,16.77
2023-03-24T03:47:01.727Z,20.35
2023-03-24T03:49:31.172Z,23.15
2023-03-24T03:52:00.976Z,17.33
2023-03-24T03:54:31.936Z,19.15
2023-03-24T03:57:01.861Z,22.65
2023-03-24T03:59:35.742Z,18.88
2023-03-24T04:02:19.829Z,22.88
2023-03-24T04:05:28.477Z,19.45
2023-03-24T04:08:13.825Z,18.15
2023-03-24T04:11:04.892Z,16.25
2023-03-24T04:13:45.396Z,18.80
2023-03-24T04:16:22.271Z,17.20
2023-03-24T04:19:00.644Z,17.85
2023-03-24T04:21:48.886Z,16.33
2023-03-24T04:24:30.321Z,13.50
2023-03-24T04:29:42.561Z,17.13
2023-03-24T04:32:20.343Z,15.75
2023-03-24T04:34:55.138Z,16.05
2023-03-24T04:37:28.493Z,13.32
2023-03-24T04:40:00.809Z,15.55
2023-03-24T04:42:36.218Z,17.42
2023-03-24T04:45:08.619Z,14.70
2023-03-24T04:47:44.346Z,12.65
2023-03-24T04:50:14.961Z,17.70
2023-03-24T04:52:45.220Z,20.92
2023-03-24T04:55:38.956Z,17.50
2023-03-24T04:58:08.129Z,14.18
2023-03-24T05:00:38.447Z,15.45
2023-03-24T05:03:10.075Z,19.90
2023-03-24T05:05:39.763Z,15.38
2023-03-24T05:08:09.676Z,13.85
2023-03-24T05:10:40.550Z,14.40
2023-03-24T05:13:10.344Z,13.95
2023-03-24T05:15:40.477Z,15.95
2023-03-24T05:18:11.598Z,18.20
2023-03-24T05:20:42.247Z,14.00
2023-03-24T05:23:11.586Z,16.63
2023-03-24T05:25:41.311Z,14.90
2023-03-24T05:28:11.754Z,20.95
2023-03-24T05:30:41.779Z,17.50
2023-03-24T05:33:12.539Z,20.55
2023-03-24T05:35:42.523Z,15.63
2023-03-24T05:38:11.980Z,14.52
2023-03-24T05:40:41.692Z,16.38
2023-03-24T05:43:12.569Z,17.02
2023-03-24T05:45:42.964Z,15.23
2023-03-24T05:48:14.288Z,17.20
2023-03-24T05:50:44.195Z,15.25
2023-03-24T05:53:13.400Z,12.02
2023-03-24T05:55:43.274Z,14.00
2023-03-24T05:58:12.973Z,14.35
2023-03-24T06:00:42.808Z,11.98
2023-03-24T06:03:14.364Z,12.68
2023-03-24T06:05:46.427Z,10.88
2023-03-24T06:08:17.336Z,12.20
2023-03-24T06:10:47.085Z,13.98
2023-03-24T06:13:16.764Z,10.38
2023-03-24T06:15:48.342Z,13.43
2023-03-24T06:18:19.668Z,9.85
2023-03-24T06:20:56.731Z,11.13
2023-03-24T06:23:28.060Z,13.23
2023-03-24T06:25:58.509Z,13.13
2023-03-24T06:28:30.639Z,11.98
2023-03-24T06:31:00.948Z,16.73
2023-03-24T06:33:32.705Z,13.75
2023-03-24T06:36:02.361Z,14.32
2023-03-24T06:38:31.688Z,13.18
2023-03-24T06:41:02.656Z,14.40
2023-03-24T06:43:32.158Z,13.80
2023-03-24T06:46:02.385Z,15.70
2023-03-24T06:48:33.929Z,11.88
2023-03-24T06:51:04.213Z,14.07
2023-03-24T06:53:33.662Z,17.30
2023-03-24T06:56:03.605Z,14.02
2023-03-24T06:58:33.925Z,13.25
2023-03-24T07:01:03.996Z,12.82
2023-03-24T07:03:34.988Z,12.57
2023-03-24T07:06:05.437Z,15.20
2023-03-24T07:08:38.598Z,13.98
2023-03-24T07:11:10.040Z,12.45
2023-03-24T07:13:39.809Z,12.02
2023-03-24T07:16:10.110Z,13.82
2023-03-24T07:18:41.412Z,14.03
2023-03-24T07:21:11.170Z,15.30
2023-03-24T07:23:40.431Z,17.88
2023-03-24T07:26:10.128Z,13.48
2023-03-24T07:28:39.574Z,16.02
2023-03-24T07:31:12.553Z,13.77
2023-03-24T07:33:43.757Z,14.35
2023-03-24T07:36:13.709Z,18.30
2023-03-24T07:38:43.105Z,15.07
2023-03-24T07:41:13.437Z,11.63
2023-03-24T07:43:42.616Z,13.10
2023-03-24T07:46:12.247Z,14.73
2023-03-24T07:48:43.564Z,14.52
2023-03-24T07:51:13.431Z,13.13
2023-03-24T07:53:45.974Z,10.70
2023-03-24T07:56:16.020Z,12.30
2023-03-24T07:58:45.896Z,10.75
2023-03-24T08:01:15.915Z,12.48
2023-03-24T08:03:49.389Z,11.70
2023-03-24T08:06:19.246Z,10.55
2023-03-24T08:08:48.481Z,9.20
2023-03-24T08:11:18.277Z,9.10
2023-03-24T08:13:47.979Z,8.95
2023-03-24T08:16:17.826Z,13.97
2023-03-24T08:18:48.965Z,13.73
2023-03-24T08:21:18.968Z,9.50
2023-03-24T08:23:48.161Z,13.02
2023-03-24T08:26:17.987Z,12.25
2023-03-24T08:28:47.329Z,15.02
2023-03-24T08:31:17.072Z,11.40
2023-03-24T08:33:47.732Z,12.30
2023-03-24T08:36:17.834Z,11.73
2023-03-24T08:38:48.456Z,9.43
2023-03-24T08:43:47.537Z,13.98
2023-03-24T08:46:17.559Z,13.07
2023-03-24T08:48:49.277Z,10.85
2023-03-24T08:51:19.743Z,10.32
2023-03-24T08:53:49.101Z,9.85
2023-03-24T08:56:18.696Z,15.93
2023-03-24T08:58:48.926Z,14.18
2023-03-24T09:01:18.938Z,19.10
2023-03-24T09:03:50.127Z,13.55
2023-03-24T09:06:20.210Z,12.00
2023-03-24T09:08:49.430Z,11.10
2023-03-24T09:11:21.619Z,14.35
2023-03-24T09:13:51.249Z,13.63
2023-03-24T09:16:21.511Z,14.90
2023-03-24T09:18:52.328Z,13.37
2023-03-24T09:21:22.886Z,11.85
2023-03-24T09:23:52.652Z,14.13
2023-03-24T09:26:23.297Z,14.45
2023-03-24T09:28:52.816Z,13.05
2023-03-24T09:31:22.616Z,12.45
2023-03-24T09:33:53.561Z,12.88
2023-03-24T09:36:23.645Z,10.75
2023-03-24T09:38:53.556Z,14.38
2023-03-24T09:41:28.194Z,13.35
2023-03-24T09:44:01.482Z,14.20
2023-03-24T09:46:36.169Z,10.77
2023-03-24T09:49:07.044Z,11.90
2023-03-24T09:51:41.519Z,14.93
2023-03-24T09:54:18.602Z,9.25
2023-03-24T09:56:51.233Z,12.13
2023-03-24T09:59:23.438Z,10.73
2023-03-24T10:01:53.107Z,10.02
2023-03-24T10:04:26.718Z,11.02
2023-03-24T10:07:01.797Z,11.18
2023-03-24T10:09:32.793Z,10.90
2023-03-24T10:12:16.580Z,9.55
2023-03-24T10:14:54.163Z,9.93
2023-03-24T10:17:32.642Z,9.93
2023-03-24T10:20:12.796Z,8.38
2023-03-24T10:22:50.222Z,8.38
2023-03-24T10:25:23.209Z,10.15
2023-03-24T10:27:57.394Z,11.60
2023-03-24T10:30:30.327Z,14.65
2023-03-24T10:33:00.136Z,9.07
2023-03-24T10:35:35.094Z,9.75
2023-03-24T10:38:13.281Z,8.40
2023-03-24T10:40:43.547Z,10.90
2023-03-24T10:43:13.655Z,9.80
2023-03-24T10:45:45.580Z,10.88
2023-03-24T10:48:17.576Z,11.63
2023-03-24T10:50:49.331Z,9.13
2023-03-24T10:53:20.531Z,13.13
2023-03-24T10:55:51.108Z,10.48
2023-03-24T10:58:30.838Z,9.98
2023-03-24T11:01:01.835Z,8.55
2023-03-24T11:03:33.533Z,8.05
2023-03-24T11:06:07.220Z,8.00
2023-03-24T11:08:39.377Z,7.22
2023-03-24T11:11:32.237Z,8.32
2023-03-24T11:14:04.285Z,9.93
2023-03-24T11:16:37.861Z,6.63
2023-03-24T11:19:19.243Z,13.02
2023-03-24T11:21:59.721Z,6.05
2023-03-24T11:24:31.393Z,8.18
2023-03-24T11:27:03.504Z,10.18
2023-03-24T11:29:35.797Z,7.68
2023-03-24T11:32:13.903Z,5.88
2023-03-24T11:34:49.186Z,8.70
2023-03-24T11:37:21.831Z,8.38
2023-03-24T11:40:11.084Z,6.05
2023-03-24T11:42:45.939Z,5.75
2023-03-24T11:45:29.442Z,5.63
2023-03-24T11:48:00.872Z,5.38
2023-03-24T11:50:33.349Z,6.68
2023-03-24T11:53:12.890Z,5.32
2023-03-24T11:55:48.688Z,7.25
2023-03-24T11:58:29.409Z,7.72
2023-03-24T12:01:04.602Z,5.28
2023-03-24T12:04:00.906Z,5.00
2023-03-24T12:06:42.460Z,4.97
2023-03-24T12:09:22.769Z,8.45
2023-03-24T12:12:14.098Z,5.03
2023-03-24T12:14:56.412Z,7.55
2023-03-24T12:17:30.555Z,6.80
2023-03-24T12:20:11.597Z,6.97
2023-03-24T12:22:52.288Z,5.95
2023-03-24T12:25:42.760Z,6.82
2023-03-24T12:31:02.542Z,4.88
2023-03-24T12:33:45.170Z,6.57
2023-03-24T12:36:32.137Z,4.68
2023-03-24T12:39:06.632Z,7.03
2023-03-24T12:42:07.634Z,6.88
2023-03-24T12:45:06.727Z,4.60
2023-03-24T12:47:56.595Z,5.18
2023-03-24T12:50:39.160Z,6.10
2023-03-24T12:53:26.991Z,4.75
2023-03-24T12:55:59.926Z,3.58
2023-03-24T12:58:40.177Z,3.63
2023-03-24T13:01:17.487Z,4.25
2023-03-24T13:03:49.608Z,4.60
2023-03-24T13:06:26.346Z,4.30
2023-03-24T13:09:08.286Z,4.50
2023-03-24T13:11:45.202Z,4.03
2023-03-24T13:14:20.726Z,4.72
2023-03-24T13:16:52.442Z,4.88
2023-03-24T13:19:25.166Z,4.05
2023-03-24T13:21:57.742Z,4.63
2023-03-24T13:24:28.467Z,3.40
2023-03-24T13:27:07.573Z,4.00
2023-03-24T13:30:09.925Z,4.38
2023-03-24T13:32:42.993Z,4.43
2023-03-24T13:35:19.745Z,4.75
2023-03-24T13:37:53.024Z,5.25
2023-03-24T13:40:24.375Z,3.88
2023-03-24T13:42:57.111Z,5.85
2023-03-24T13:45:40.456Z,4.57
2023-03-24T13:48:28.177Z,4.43
2023-03-24T13:51:01.670Z,3.10
2023-03-24T13:53:40.595Z,4.00
2023-03-24T13:56:11.616Z,4.72
2023-03-24T13:59:06.889Z,8.48
2023-03-24T14:01:40.259Z,5.88
2023-03-24T14:04:28.719Z,3.25
2023-03-24T14:07:00.035Z,4.45
2023-03-24T14:09:33.291Z,3.33
2023-03-24T14:12:21.484Z,4.00
2023-03-24T14:15:20.402Z,3.35
2023-03-24T14:17:56.804Z,4.35
2023-03-24T14:20:35.381Z,3.30
2023-03-24T14:23:05.708Z,5.00
2023-03-24T14:25:37.137Z,4.75
2023-03-24T14:28:24.232Z,2.78
2023-03-24T14:31:13.579Z,4.47
2023-03-24T14:34:02.697Z,3.20
2023-03-24T14:36:39.851Z,4.53
2023-03-24T14:39:13.935Z,3.50
2023-03-24T14:41:44.602Z,3.53
2023-03-24T14:44:13.973Z,2.92
2023-03-24T14:46:50.598Z,3.70
2023-03-24T14:49:25.720Z,3.33
2023-03-24T14:52:02.213Z,3.15
2023-03-24T14:54:38.561Z,3.95
2023-03-24T14:57:10.044Z,4.30
2023-03-24T14:59:45.930Z,3.65
2023-03-24T15:02:29.657Z,5.22
2023-03-24T15:05:32.149Z,3.40
2023-03-24T15:08:13.085Z,2.85
2023-03-24T15:10:46.787Z,3.33
2023-03-24T15:13:38.624Z,5.03
2023-03-24T15:16:18.443Z,2.83
2023-03-24T15:19:00.417Z,2.10
2023-03-24T15:21:35.992Z,4.40
2023-03-24T15:24:28.277Z,5.70
2023-03-24T15:27:21.814Z,2.95
2023-03-24T15:29:57.915Z,4.03
2023-03-24T15:32:32.459Z,3.25
2023-03-24T15:35:06.934Z,5.82
2023-03-24T15:37:41.746Z,2.03
2023-03-24T15:40:39.391Z,2.58
2023-03-24T15:43:19.494Z,4.75
2023-03-24T15:46:04.691Z,2.22
2023-03-24T15:48:39.663Z,3.20
2023-03-24T15:51:12.582Z,3.15
2023-03-24T15:53:49.588Z,3.30
2023-03-24T15:56:22.181Z,5.63
2023-03-24T15:58:55.079Z,7.13
2023-03-24T16:01:31.757Z,6.13
2023-03-24T16:04:03.297Z,4.35
2023-03-24T16:06:36.603Z,7.13
2023-03-24T16:09:10.958Z,9.65
2023-03-24T16:11:41.769Z,8.82
2023-03-24T16:14:22.892Z,5.47
2023-03-24T16:16:56.608Z,8.13
2023-03-24T16:19:26.554Z,8.63
2023-03-24T16:21:56.277Z,6.43
2023-03-24T16:24:26.924Z,7.90
2023-03-24T16:26:56.558Z,10.52
2023-03-24T16:29:26.253Z,6.35
2023-03-24T16:31:58.998Z,17.00
2023-03-24T16:34:28.362Z,7.47
2023-03-24T16:36:57.898Z,14.40
2023-03-24T16:39:30.047Z,10.25
2023-03-24T16:41:59.950Z,8.07
2023-03-24T16:44:29.242Z,10.57
2023-03-24T16:46:59.215Z,6.30
2023-03-24T16:49:29.956Z,8.48
2023-03-24T16:51:59.743Z,11.52
2023-03-24T16:54:30.456Z,5.57
2023-03-24T16:57:00.878Z,9.43
2023-03-24T16:59:30.569Z,8.25
2023-03-24T17:02:05.414Z,15.00
2023-03-24T17:04:35.357Z,8.00
2023-03-24T17:07:04.987Z,18.15
2023-03-24T17:09:36.536Z,14.13
2023-03-24T17:12:06.958Z,12.32
2023-03-24T17:14:36.640Z,12.80
2023-03-24T17:17:07.628Z,7.17
2023-03-24T17:19:38.008Z,7.72
2023-03-24T17:22:09.162Z,11.05
2023-03-24T17:24:42.515Z,14.05
2023-03-24T17:27:28.089Z,12.02
2023-03-24T17:30:23.160Z,9.63
2023-03-24T17:33:00.045Z,14.15
2023-03-24T17:35:51.093Z,13.73
2023-03-24T17:38:28.168Z,12.45
2023-03-24T17:41:06.378Z,9.48
2023-03-24T17:43:36.518Z,15.10
2023-03-24T17:46:06.227Z,12.00
2023-03-24T17:49:16.900Z,11.10
2023-03-24T17:51:46.205Z,9.80
2023-03-24T17:54:19.584Z,11.23
2023-03-24T17:56:50.435Z,6.93
2023-03-24T17:59:20.049Z,21.15
2023-03-24T18:01:49.294Z,14.88
2023-03-24T18:04:18.910Z,15.52
2023-03-24T18:06:48.149Z,10.85
2023-03-24T18:09:18.690Z,17.05
2023-03-24T18:11:49.673Z,13.20
2023-03-24T18:14:19.760Z,13.93
2023-03-24T18:16:49.200Z,12.43
2023-03-24T18:19:19.205Z,15.10
2023-03-24T18:21:48.444Z,11.75
2023-03-24T18:24:17.997Z,12.98
2023-03-24T18:26:49.173Z,13.32
2023-03-24T18:29:24.101Z,16.30
2023-03-24T18:31:53.347Z,14.43
2023-03-24T18:34:23.341Z,14.07
2023-03-24T18:36:53.157Z,17.92
2023-03-24T18:39:22.958Z,19.77
2023-03-24T18:41:53.630Z,16.20
2023-03-24T18:44:25.038Z,14.35
2023-03-24T18:49:24.107Z,9.55
2023-03-24T18:51:53.369Z,11.35
2023-03-24T18:54:23.350Z,11.52
2023-03-24T18:56:52.749Z,21.17
2023-03-24T18:59:23.922Z,17.85
2023-03-24T19:01:53.141Z,15.75
2023-03-24T19:04:22.885Z,16.67
2023-03-24T19:06:52.083Z,15.15
2023-03-24T19:09:23.002Z,16.48
2023-03-24T19:11:52.333Z,17.00
2023-03-24T19:14:22.541Z,17.20
2023-03-24T19:16:53.252Z,15.45
2023-03-24T19:19:23.346Z,14.30
2023-03-24T19:21:52.696Z,14.75
2023-03-24T19:24:22.492Z,14.80
2023-03-24T19:26:52.004Z,14.55
2023-03-24T19:29:22.203Z,14.40
2023-03-24T19:31:52.846Z,18.83
2023-03-24T19:36:52.277Z,13.65
2023-03-24T19:39:22.700Z,13.13
2023-03-24T19:41:52.032Z,13.63
2023-03-24T19:44:22.693Z,14.40
2023-03-24T19:46:53.510Z,13.65
2023-03-24T19:49:23.676Z,13.48
2023-03-24T19:51:52.875Z,11.82
2023-03-24T19:54:22.891Z,18.10
2023-03-24T19:56:52.244Z,12.57
2023-03-24T19:59:21.788Z,17.13
2023-03-24T20:01:51.436Z,17.98
2023-03-24T20:04:22.792Z,18.17
2023-03-24T20:09:22.048Z,10.88
2023-03-24T20:11:54.347Z,15.90
2023-03-24T20:14:24.100Z,19.80
2023-03-24T20:16:53.465Z,17.80
2023-03-24T20:19:24.618Z,18.58
2023-03-24T20:21:54.533Z,16.90
2023-03-24T20:24:24.478Z,15.80
2023-03-24T20:26:53.891Z,14.65
2023-03-24T20:29:23.641Z,23.73
2023-03-24T20:31:52.845Z,20.05
2023-03-24T20:34:23.987Z,18.83
2023-03-24T20:36:53.244Z,19.92
2023-03-24T20:39:23.292Z,17.60
2023-03-24T20:41:53.591Z,12.30
2023-03-24T20:46:52.733Z,16.15
2023-03-24T20:49:24.610Z,17.25
2023-03-24T20:51:54.402Z,23.70
2023-03-24T20:54:24.215Z,18.90
2023-03-24T20:56:54.106Z,16.30
2023-03-24T20:59:24.378Z,13.48
2023-03-24T21:01:53.596Z,18.60
2023-03-24T21:04:24.825Z,17.20
2023-03-24T21:06:54.715Z,11.65
2023-03-24T21:09:24.871Z,15.73
2023-03-24T21:11:54.493Z,17.88
2023-03-24T21:14:25.304Z,16.40
2023-03-24T21:16:55.181Z,13.80
2023-03-24T21:19:26.596Z,16.13
2023-03-24T21:24:25.940Z,9.32
2023-03-24T21:26:57.408Z,15.15
2023-03-24T21:29:27.380Z,8.18
2023-03-24T21:31:56.851Z,11.07
2023-03-24T21:34:27.973Z,10.80
2023-03-24T21:36:57.328Z,10.32
2023-03-24T21:39:27.084Z,10.55
2023-03-24T21:41:56.382Z,10.90
2023-03-24T21:44:26.618Z,12.75
2023-03-24T21:46:57.035Z,14.02
2023-03-24T21:49:28.213Z,13.20
2023-03-24T21:54:27.340Z,9.07
2023-03-24T21:56:56.599Z,15.27
2023-03-24T21:59:26.628Z,9.60
2023-03-24T22:01:57.683Z,14.70
2023-03-24T22:04:28.763Z,14.80
2023-03-24T22:06:58.064Z,13.55
2023-03-24T22:09:27.777Z,11.82
2023-03-24T22:11:57.561Z,11.02
2023-03-24T22:14:27.620Z,10.88
2023-03-24T22:16:57.174Z,11.05
2023-03-24T22:19:28.657Z,14.18
2023-03-24T22:22:01.896Z,15.75
2023-03-24T22:24:32.222Z,10.80
2023-03-24T22:27:02.448Z,12.80
2023-03-24T22:29:32.283Z,21.52
2023-03-24T22:32:01.643Z,13.90
2023-03-24T22:34:32.817Z,12.68
2023-03-24T22:37:02.538Z,11.73
2023-03-24T22:39:34.340Z,11.57
2023-03-24T22:42:03.633Z,13.45
2023-03-24T22:44:34.135Z,13.27
2023-03-24T22:47:03.772Z,14.20
2023-03-24T22:49:36.965Z,19.97
2023-03-24T22:52:06.423Z,9.93
2023-03-24T22:54:36.265Z,19.83
2023-03-24T22:57:05.791Z,13.05
2023-03-24T22:59:35.853Z,11.52
2023-03-24T23:02:09.991Z,18.02
2023-03-24T23:04:41.870Z,16.75
2023-03-24T23:09:43.276Z,21.83
2023-03-24T23:12:13.886Z,12.85
2023-03-24T23:17:16.117Z,9.68
2023-03-24T23:19:47.403Z,10.48
2023-03-24T23:22:16.895Z,19.13
2023-03-24T23:24:48.410Z,15.27
2023-03-24T23:29:47.556Z,13.48
2023-03-24T23:32:17.058Z,11.98
2023-03-24T23:34:49.000Z,13.32
2023-03-24T23:37:19.305Z,12.77
2023-03-24T23:42:19.753Z,13.80
2023-03-24T23:44:49.732Z,19.67
2023-03-24T23:47:19.125Z,16.20
2023-03-24T23:49:50.976Z,11.68
2023-03-24T23:52:20.428Z,17.13
2023-03-24T23:54:50.112Z,11.55
2023-03-24T23:57:19.317Z,17.10
2023-03-24T23:59:54.050Z,15.80
